sensor_id;sensor_type;location;lat;lon;timestamp;P1;durP1;ratioP1;P2;durP2;ratioP2
60241;SDS011;46103;52.076;113.488;2023-03-01T00:00:47;26.63;;;11.50;;
60241;SDS011;46103;52.076;113.488;2023-03-01T00:03:57;23.27;;;10.60;;
60241;SDS011;46103;52.076;113.488;2023-03-01T00:07:07;18.83;;;11.32;;
60241;SDS011;46103;52.076;113.488;2023-03-01T00:10:17;28.15;;;11.88;;
60241;SDS011;46103;52.076;113.488;2023-03-01T00:13:27;23.23;;;11.30;;
60241;SDS011;46103;52.076;113.488;2023-03-01T00:16:38;17.83;;;9.35;;
60241;SDS011;46103;52.076;113.488;2023-03-01T00:19:49;27.88;;;12.38;;
60241;SDS011;46103;52.076;113.488;2023-03-01T00:23:00;75.00;;;27.10;;
60241;SDS011;46103;52.076;113.488;2023-03-01T00:26:12;185.50;;;62.85;;
60241;SDS011;46103;52.076;113.488;2023-03-01T00:29:23;134.43;;;47.10;;
60241;SDS011;46103;52.076;113.488;2023-03-01T00:32:33;90.75;;;32.28;;
60241;SDS011;46103;52.076;113.488;2023-03-01T00:35:44;132.48;;;42.53;;
60241;SDS011;46103;52.076;113.488;2023-03-01T00:38:54;98.05;;;30.80;;
60241;SDS011;46103;52.076;113.488;2023-03-01T00:42:02;76.25;;;28.42;;
60241;SDS011;46103;52.076;113.488;2023-03-01T00:45:08;41.70;;;17.20;;
60241;SDS011;46103;52.076;113.488;2023-03-01T00:48:14;139.98;;;45.53;;
60241;SDS011;46103;52.076;113.488;2023-03-01T00:51:21;113.97;;;39.00;;
60241;SDS011;46103;52.076;113.488;2023-03-01T00:54:31;93.97;;;31.52;;
60241;SDS011;46103;52.076;113.488;2023-03-01T00:57:41;82.75;;;24.63;;
60241;SDS011;46103;52.076;113.488;2023-03-01T01:00:51;67.47;;;25.50;;
60241;SDS011;46103;52.076;113.488;2023-03-01T01:07:07;96.20;;;37.45;;
60241;SDS011;46103;52.076;113.488;2023-03-01T01:10:16;111.10;;;38.42;;
60241;SDS011;46103;52.076;113.488;2023-03-01T01:13:26;220.07;;;71.25;;
60241;SDS011;46103;52.076;113.488;2023-03-01T01:16:33;136.98;;;48.45;;
60241;SDS011;46103;52.076;113.488;2023-03-01T01:19:38;116.13;;;45.53;;
60241;SDS011;46103;52.076;113.488;2023-03-01T01:22:45;220.43;;;78.18;;
60241;SDS011;46103;52.076;113.488;2023-03-01T01:25:53;76.60;;;26.17;;
60241;SDS011;46103;52.076;113.488;2023-03-01T01:29:14;109.53;;;41.30;;
60241;SDS011;46103;52.076;113.488;2023-03-01T01:35:49;45.42;;;18.10;;
60241;SDS011;46103;52.076;113.488;2023-03-01T01:39:00;119.82;;;39.30;;
60241;SDS011;46103;52.076;113.488;2023-03-01T01:42:11;114.35;;;39.50;;
60241;SDS011;46103;52.076;113.488;2023-03-01T01:45:26;72.35;;;26.05;;
60241;SDS011;46103;52.076;113.488;2023-03-01T01:55:26;55.45;;;22.27;;
60241;SDS011;46103;52.076;113.488;2023-03-01T01:58:30;82.07;;;28.92;;
60241;SDS011;46103;52.076;113.488;2023-03-01T02:01:34;73.80;;;25.70;;
60241;SDS011;46103;52.076;113.488;2023-03-01T02:04:39;89.93;;;29.88;;
60241;SDS011;46103;52.076;113.488;2023-03-01T02:07:43;81.18;;;28.88;;
60241;SDS011;46103;52.076;113.488;2023-03-01T02:10:49;81.68;;;32.20;;
60241;SDS011;46103;52.076;113.488;2023-03-01T02:13:53;80.10;;;28.83;;
60241;SDS011;46103;52.076;113.488;2023-03-01T02:16:57;107.90;;;33.17;;
60241;SDS011;46103;52.076;113.488;2023-03-01T02:20:07;93.35;;;29.55;;
60241;SDS011;46103;52.076;113.488;2023-03-01T02:23:25;81.65;;;31.73;;
60241;SDS011;46103;52.076;113.488;2023-03-01T02:29:44;47.83;;;19.45;;
60241;SDS011;46103;52.076;113.488;2023-03-01T02:32:52;83.07;;;26.40;;
60241;SDS011;46103;52.076;113.488;2023-03-01T02:36:01;69.43;;;24.50;;
60241;SDS011;46103;52.076;113.488;2023-03-01T02:39:31;67.35;;;24.90;;
60241;SDS011;46103;52.076;113.488;2023-03-01T02:42:41;70.85;;;26.02;;
60241;SDS011;46103;52.076;113.488;2023-03-01T02:46:06;65.53;;;25.83;;
60241;SDS011;46103;52.076;113.488;2023-03-01T02:49:22;68.70;;;25.35;;
60241;SDS011;46103;52.076;113.488;2023-03-01T02:52:41;65.97;;;26.17;;
60241;SDS011;46103;52.076;113.488;2023-03-01T02:55:56;61.80;;;26.30;;
60241;SDS011;46103;52.076;113.488;2023-03-01T02:59:03;64.72;;;24.13;;
60241;SDS011;46103;52.076;113.488;2023-03-01T03:02:20;64.57;;;22.53;;
60241;SDS011;46103;52.076;113.488;2023-03-01T03:05:52;55.28;;;18.00;;
60241;SDS011;46103;52.076;113.488;2023-03-01T03:08:58;51.53;;;21.90;;
60241;SDS011;46103;52.076;113.488;2023-03-01T03:12:05;40.22;;;16.50;;
60241;SDS011;46103;52.076;113.488;2023-03-01T03:15:12;36.25;;;14.23;;
60241;SDS011;46103;52.076;113.488;2023-03-01T03:18:19;39.08;;;13.55;;
60241;SDS011;46103;52.076;113.488;2023-03-01T03:21:25;46.67;;;16.83;;
60241;SDS011;46103;52.076;113.488;2023-03-01T03:24:43;29.63;;;11.98;;
60241;SDS011;46103;52.076;113.488;2023-03-01T03:27:49;34.17;;;11.50;;
60241;SDS011;46103;52.076;113.488;2023-03-01T03:31:05;25.05;;;11.32;;
60241;SDS011;46103;52.076;113.488;2023-03-01T03:34:10;21.70;;;9.73;;
60241;SDS011;46103;52.076;113.488;2023-03-01T03:37:25;27.67;;;9.55;;
60241;SDS011;46103;52.076;113.488;2023-03-01T03:40:49;30.30;;;10.88;;
60241;SDS011;46103;52.076;113.488;2023-03-01T03:44:11;29.77;;;11.15;;
60241;SDS011;46103;52.076;113.488;2023-03-01T03:47:16;13.23;;;5.60;;
60241;SDS011;46103;52.076;113.488;2023-03-01T03:50:21;29.70;;;8.95;;
60241;SDS011;46103;52.076;113.488;2023-03-01T03:53:26;18.42;;;6.40;;
60241;SDS011;46103;52.076;113.488;2023-03-01T03:56:32;27.45;;;9.27;;
60241;SDS011;46103;52.076;113.488;2023-03-01T03:59:37;31.92;;;10.32;;
60241;SDS011;46103;52.076;113.488;2023-03-01T04:02:41;30.38;;;8.23;;
60241;SDS011;46103;52.076;113.488;2023-03-01T04:05:46;24.73;;;9.30;;
60241;SDS011;46103;52.076;113.488;2023-03-01T04:08:50;22.77;;;9.90;;
60241;SDS011;46103;52.076;113.488;2023-03-01T04:12:02;28.17;;;9.95;;
60241;SDS011;46103;52.076;113.488;2023-03-01T04:15:06;28.35;;;11.57;;
60241;SDS011;46103;52.076;113.488;2023-03-01T04:18:19;38.53;;;12.45;;
60241;SDS011;46103;52.076;113.488;2023-03-01T04:21:25;27.30;;;9.98;;
60241;SDS011;46103;52.076;113.488;2023-03-01T04:24:32;21.15;;;9.13;;
60241;SDS011;46103;52.076;113.488;2023-03-01T04:27:41;23.00;;;9.23;;
60241;SDS011;46103;52.076;113.488;2023-03-01T04:30:44;17.30;;;7.72;;
60241;SDS011;46103;52.076;113.488;2023-03-01T04:33:49;16.60;;;6.45;;
60241;SDS011;46103;52.076;113.488;2023-03-01T04:36:55;8.13;;;3.63;;
60241;SDS011;46103;52.076;113.488;2023-03-01T04:39:59;21.33;;;7.13;;
60241;SDS011;46103;52.076;113.488;2023-03-01T04:43:04;12.43;;;4.70;;
60241;SDS011;46103;52.076;113.488;2023-03-01T04:46:10;16.15;;;6.82;;
60241;SDS011;46103;52.076;113.488;2023-03-01T04:49:16;14.57;;;7.07;;
60241;SDS011;46103;52.076;113.488;2023-03-01T04:52:19;13.85;;;5.22;;
60241;SDS011;46103;52.076;113.488;2023-03-01T04:55:27;9.50;;;4.47;;
60241;SDS011;46103;52.076;113.488;2023-03-01T04:58:31;19.75;;;6.60;;
60241;SDS011;46103;52.076;113.488;2023-03-01T05:01:36;17.73;;;6.75;;
60241;SDS011;46103;52.076;113.488;2023-03-01T05:04:40;9.45;;;3.80;;
60241;SDS011;46103;52.076;113.488;2023-03-01T05:07:44;12.80;;;4.05;;
60241;SDS011;46103;52.076;113.488;2023-03-01T05:10:49;10.93;;;4.35;;
60241;SDS011;46103;52.076;113.488;2023-03-01T05:13:57;5.28;;;2.33;;
60241;SDS011;46103;52.076;113.488;2023-03-01T05:17:01;5.82;;;2.97;;
60241;SDS011;46103;52.076;113.488;2023-03-01T05:20:07;10.80;;;3.38;;
60241;SDS011;46103;52.076;113.488;2023-03-01T05:23:13;10.15;;;3.88;;
60241;SDS011;46103;52.076;113.488;2023-03-01T05:26:18;9.30;;;2.70;;
60241;SDS011;46103;52.076;113.488;2023-03-01T05:29:30;9.27;;;3.25;;
60241;SDS011;46103;52.076;113.488;2023-03-01T05:32:37;10.30;;;4.20;;
60241;SDS011;46103;52.076;113.488;2023-03-01T05:35:42;5.75;;;2.60;;
60241;SDS011;46103;52.076;113.488;2023-03-01T05:38:47;8.57;;;3.30;;
60241;SDS011;46103;52.076;113.488;2023-03-01T05:41:53;11.18;;;2.47;;
60241;SDS011;46103;52.076;113.488;2023-03-01T05:45:02;5.22;;;2.53;;
60241;SDS011;46103;52.076;113.488;2023-03-01T05:48:08;17.98;;;8.38;;
60241;SDS011;46103;52.076;113.488;2023-03-01T05:51:13;7.45;;;3.80;;
60241;SDS011;46103;52.076;113.488;2023-03-01T05:54:17;12.68;;;4.90;;
60241;SDS011;46103;52.076;113.488;2023-03-01T05:57:21;9.52;;;3.95;;
60241;SDS011;46103;52.076;113.488;2023-03-01T06:00:26;12.80;;;5.57;;
60241;SDS011;46103;52.076;113.488;2023-03-01T06:03:33;8.32;;;3.67;;
60241;SDS011;46103;52.076;113.488;2023-03-01T06:06:36;11.25;;;3.72;;
60241;SDS011;46103;52.076;113.488;2023-03-01T06:09:39;7.78;;;3.78;;
60241;SDS011;46103;52.076;113.488;2023-03-01T06:12:42;11.63;;;4.22;;
60241;SDS011;46103;52.076;113.488;2023-03-01T06:15:47;13.07;;;4.03;;
60241;SDS011;46103;52.076;113.488;2023-03-01T06:18:50;7.55;;;3.67;;
60241;SDS011;46103;52.076;113.488;2023-03-01T06:21:53;9.55;;;3.90;;
60241;SDS011;46103;52.076;113.488;2023-03-01T06:24:57;6.40;;;3.38;;
60241;SDS011;46103;52.076;113.488;2023-03-01T06:28:00;7.38;;;3.28;;
60241;SDS011;46103;52.076;113.488;2023-03-01T06:31:03;11.48;;;4.72;;
60241;SDS011;46103;52.076;113.488;2023-03-01T06:34:11;6.93;;;2.80;;
60241;SDS011;46103;52.076;113.488;2023-03-01T06:37:15;11.32;;;3.58;;
60241;SDS011;46103;52.076;113.488;2023-03-01T06:40:24;12.45;;;3.85;;
60241;SDS011;46103;52.076;113.488;2023-03-01T06:47:25;14.40;;;3.65;;
60241;SDS011;46103;52.076;113.488;2023-03-01T06:50:29;6.60;;;2.90;;
60241;SDS011;46103;52.076;113.488;2023-03-01T06:53:34;6.85;;;2.63;;
60241;SDS011;46103;52.076;113.488;2023-03-01T06:56:39;6.35;;;3.35;;
60241;SDS011;46103;52.076;113.488;2023-03-01T06:59:44;10.57;;;3.75;;
60241;SDS011;46103;52.076;113.488;2023-03-01T07:02:50;9.80;;;3.92;;
60241;SDS011;46103;52.076;113.488;2023-03-01T07:05:55;8.10;;;4.13;;
60241;SDS011;46103;52.076;113.488;2023-03-01T07:08:59;7.10;;;3.30;;
60241;SDS011;46103;52.076;113.488;2023-03-01T07:12:05;9.20;;;2.75;;
60241;SDS011;46103;52.076;113.488;2023-03-01T07:15:11;11.35;;;4.03;;
60241;SDS011;46103;52.076;113.488;2023-03-01T07:18:16;7.35;;;3.30;;
60241;SDS011;46103;52.076;113.488;2023-03-01T07:21:21;14.40;;;3.95;;
60241;SDS011;46103;52.076;113.488;2023-03-01T07:24:26;7.80;;;3.88;;
60241;SDS011;46103;52.076;113.488;2023-03-01T07:27:34;9.05;;;3.30;;
60241;SDS011;46103;52.076;113.488;2023-03-01T07:30:40;10.73;;;4.72;;
60241;SDS011;46103;52.076;113.488;2023-03-01T07:33:50;10.15;;;4.35;;
60241;SDS011;46103;52.076;113.488;2023-03-01T07:36:57;9.48;;;4.10;;
60241;SDS011;46103;52.076;113.488;2023-03-01T07:40:02;15.93;;;4.55;;
60241;SDS011;46103;52.076;113.488;2023-03-01T07:43:07;9.05;;;3.38;;
60241;SDS011;46103;52.076;113.488;2023-03-01T07:46:13;14.98;;;3.78;;
60241;SDS011;46103;52.076;113.488;2023-03-01T07:49:18;11.43;;;5.00;;
60241;SDS011;46103;52.076;113.488;2023-03-01T07:52:24;19.77;;;7.32;;
60241;SDS011;46103;52.076;113.488;2023-03-01T07:55:30;16.98;;;6.22;;
60241;SDS011;46103;52.076;113.488;2023-03-01T07:58:39;16.58;;;6.70;;
60241;SDS011;46103;52.076;113.488;2023-03-01T08:01:52;13.38;;;3.97;;
60241;SDS011;46103;52.076;113.488;2023-03-01T08:04:58;16.88;;;6.15;;
60241;SDS011;46103;52.076;113.488;2023-03-01T08:08:02;11.05;;;3.88;;
60241;SDS011;46103;52.076;113.488;2023-03-01T08:11:10;8.88;;;3.90;;
60241;SDS011;46103;52.076;113.488;2023-03-01T08:17:24;14.90;;;5.90;;
60241;SDS011;46103;52.076;113.488;2023-03-01T08:20:29;17.70;;;6.07;;
60241;SDS011;46103;52.076;113.488;2023-03-01T08:23:36;7.82;;;2.75;;
60241;SDS011;46103;52.076;113.488;2023-03-01T08:26:44;12.95;;;4.47;;
60241;SDS011;46103;52.076;113.488;2023-03-01T08:29:50;14.15;;;5.30;;
60241;SDS011;46103;52.076;113.488;2023-03-01T08:32:57;11.00;;;4.97;;
60241;SDS011;46103;52.076;113.488;2023-03-01T08:36:03;18.48;;;5.25;;
60241;SDS011;46103;52.076;113.488;2023-03-01T08:39:11;16.63;;;5.85;;
60241;SDS011;46103;52.076;113.488;2023-03-01T08:42:19;22.88;;;5.90;;
60241;SDS011;46103;52.076;113.488;2023-03-01T08:45:25;16.60;;;4.90;;
60241;SDS011;46103;52.076;113.488;2023-03-01T08:48:34;14.30;;;6.25;;
60241;SDS011;46103;52.076;113.488;2023-03-01T08:51:41;18.02;;;6.40;;
60241;SDS011;46103;52.076;113.488;2023-03-01T08:54:48;19.50;;;5.93;;
60241;SDS011;46103;52.076;113.488;2023-03-01T08:57:52;18.23;;;7.03;;
60241;SDS011;46103;52.076;113.488;2023-03-01T09:00:55;25.05;;;8.52;;
60241;SDS011;46103;52.076;113.488;2023-03-01T09:03:59;26.98;;;10.45;;
60241;SDS011;46103;52.076;113.488;2023-03-01T09:07:04;26.73;;;9.52;;
60241;SDS011;46103;52.076;113.488;2023-03-01T09:10:09;39.50;;;12.48;;
60241;SDS011;46103;52.076;113.488;2023-03-01T09:13:15;33.85;;;10.50;;
60241;SDS011;46103;52.076;113.488;2023-03-01T09:16:22;27.42;;;10.95;;
60241;SDS011;46103;52.076;113.488;2023-03-01T09:19:34;24.77;;;9.90;;
60241;SDS011;46103;52.076;113.488;2023-03-01T09:22:40;16.23;;;6.32;;
60241;SDS011;46103;52.076;113.488;2023-03-01T09:25:49;20.70;;;8.93;;
60241;SDS011;46103;52.076;113.488;2023-03-01T09:28:57;23.02;;;8.98;;
60241;SDS011;46103;52.076;113.488;2023-03-01T09:32:05;24.50;;;7.82;;
60241;SDS011;46103;52.076;113.488;2023-03-01T09:35:21;20.00;;;7.97;;
60241;SDS011;46103;52.076;113.488;2023-03-01T09:38:28;30.23;;;9.48;;
60241;SDS011;46103;52.076;113.488;2023-03-01T09:44:41;24.20;;;9.48;;
60241;SDS011;46103;52.076;113.488;2023-03-01T09:47:51;43.53;;;14.00;;
60241;SDS011;46103;52.076;113.488;2023-03-01T09:51:02;47.20;;;15.65;;
60241;SDS011;46103;52.076;113.488;2023-03-01T09:54:15;53.38;;;17.52;;
60241;SDS011;46103;52.076;113.488;2023-03-01T10:00:35;23.73;;;9.20;;
60241;SDS011;46103;52.076;113.488;2023-03-01T10:10:46;31.77;;;9.75;;
60241;SDS011;46103;52.076;113.488;2023-03-01T10:14:15;19.08;;;8.48;;
60241;SDS011;46103;52.076;113.488;2023-03-01T10:17:43;27.02;;;8.68;;
60241;SDS011;46103;52.076;113.488;2023-03-01T10:20:55;18.35;;;7.00;;
60241;SDS011;46103;52.076;113.488;2023-03-01T10:24:10;27.05;;;7.72;;
60241;SDS011;46103;52.076;113.488;2023-03-01T10:27:25;26.63;;;8.38;;
60241;SDS011;46103;52.076;113.488;2023-03-01T10:30:40;24.25;;;8.05;;
60241;SDS011;46103;52.076;113.488;2023-03-01T10:33:48;21.00;;;7.28;;
60241;SDS011;46103;52.076;113.488;2023-03-01T10:37:10;22.85;;;8.40;;
60241;SDS011;46103;52.076;113.488;2023-03-01T10:40:19;29.17;;;10.38;;
60241;SDS011;46103;52.076;113.488;2023-03-01T10:43:29;20.23;;;8.75;;
60241;SDS011;46103;52.076;113.488;2023-03-01T10:46:59;21.02;;;8.00;;
60241;SDS011;46103;52.076;113.488;2023-03-01T10:50:17;27.48;;;7.95;;
60241;SDS011;46103;52.076;113.488;2023-03-01T10:56:58;25.85;;;9.55;;
60241;SDS011;46103;52.076;113.488;2023-03-01T11:03:31;31.55;;;9.63;;
60241;SDS011;46103;52.076;113.488;2023-03-01T11:06:39;23.33;;;8.45;;
60241;SDS011;46103;52.076;113.488;2023-03-01T11:09:43;22.02;;;10.15;;
60241;SDS011;46103;52.076;113.488;2023-03-01T11:12:46;27.55;;;9.45;;
60241;SDS011;46103;52.076;113.488;2023-03-01T11:16:00;23.75;;;8.18;;
60241;SDS011;46103;52.076;113.488;2023-03-01T11:22:17;40.80;;;12.90;;
60241;SDS011;46103;52.076;113.488;2023-03-01T11:25:25;27.25;;;9.82;;
60241;SDS011;46103;52.076;113.488;2023-03-01T11:28:31;28.17;;;8.45;;
60241;SDS011;46103;52.076;113.488;2023-03-01T11:31:37;60.63;;;19.90;;
60241;SDS011;46103;52.076;113.488;2023-03-01T11:38:40;58.42;;;19.92;;
60241;SDS011;46103;52.076;113.488;2023-03-01T11:41:44;54.95;;;17.00;;
60241;SDS011;46103;52.076;113.488;2023-03-01T11:44:58;49.53;;;18.38;;
60241;SDS011;46103;52.076;113.488;2023-03-01T11:48:17;47.88;;;14.95;;
60241;SDS011;46103;52.076;113.488;2023-03-01T12:02:01;88.95;;;28.55;;
60241;SDS011;46103;52.076;113.488;2023-03-01T12:12:30;110.45;;;32.42;;
60241;SDS011;46103;52.076;113.488;2023-03-01T12:15:58;106.85;;;31.77;;
60241;SDS011;46103;52.076;113.488;2023-03-01T12:23:14;71.28;;;24.33;;
60241;SDS011;46103;52.076;113.488;2023-03-01T12:29:25;100.78;;;30.73;;
60241;SDS011;46103;52.076;113.488;2023-03-01T12:36:38;72.22;;;20.77;;
60241;SDS011;46103;52.076;113.488;2023-03-01T12:40:03;33.90;;;12.50;;
60241;SDS011;46103;52.076;113.488;2023-03-01T12:50:54;50.28;;;15.52;;
60241;SDS011;46103;52.076;113.488;2023-03-01T12:54:30;16.65;;;6.57;;
60241;SDS011;46103;52.076;113.488;2023-03-01T12:57:40;38.72;;;15.20;;
60241;SDS011;46103;52.076;113.488;2023-03-01T13:01:39;41.38;;;13.35;;
60241;SDS011;46103;52.076;113.488;2023-03-01T13:07:59;35.17;;;12.38;;
60241;SDS011;46103;52.076;113.488;2023-03-01T13:11:27;48.20;;;16.48;;
60241;SDS011;46103;52.076;113.488;2023-03-01T13:17:42;39.70;;;14.10;;
60241;SDS011;46103;52.076;113.488;2023-03-01T13:20:50;21.77;;;9.77;;
60241;SDS011;46103;52.076;113.488;2023-03-01T13:23:55;34.25;;;13.00;;
60241;SDS011;46103;52.076;113.488;2023-03-01T13:33:51;30.58;;;11.02;;
60241;SDS011;46103;52.076;113.488;2023-03-01T13:37:08;36.70;;;11.95;;
60241;SDS011;46103;52.076;113.488;2023-03-01T13:46:32;32.05;;;11.55;;
60241;SDS011;46103;52.076;113.488;2023-03-01T13:50:23;27.00;;;11.05;;
60241;SDS011;46103;52.076;113.488;2023-03-01T13:53:05;32.33;;;13.38;;
60241;SDS011;46103;52.076;113.488;2023-03-01T13:56:12;25.55;;;9.20;;
60241;SDS011;46103;52.076;113.488;2023-03-01T13:59:20;30.77;;;10.07;;
60241;SDS011;46103;52.076;113.488;2023-03-01T14:02:24;16.13;;;6.93;;
60241;SDS011;46103;52.076;113.488;2023-03-01T14:05:28;27.02;;;10.20;;
60241;SDS011;46103;52.076;113.488;2023-03-01T14:08:34;25.50;;;8.23;;
60241;SDS011;46103;52.076;113.488;2023-03-01T14:11:49;33.20;;;12.52;;
60241;SDS011;46103;52.076;113.488;2023-03-01T14:15:06;31.70;;;12.60;;
60241;SDS011;46103;52.076;113.488;2023-03-01T14:18:44;18.70;;;7.25;;
60241;SDS011;46103;52.076;113.488;2023-03-01T14:25:28;20.55;;;9.57;;
60241;SDS011;46103;52.076;113.488;2023-03-01T14:28:41;27.88;;;10.82;;
60241;SDS011;46103;52.076;113.488;2023-03-01T14:31:54;23.75;;;10.02;;
60241;SDS011;46103;52.076;113.488;2023-03-01T14:35:21;20.55;;;9.07;;
60241;SDS011;46103;52.076;113.488;2023-03-01T14:38:43;36.95;;;12.23;;
60241;SDS011;46103;52.076;113.488;2023-03-01T14:41:54;35.13;;;12.35;;
60241;SDS011;46103;52.076;113.488;2023-03-01T14:45:19;34.28;;;12.70;;
60241;SDS011;46103;52.076;113.488;2023-03-01T14:48:23;25.23;;;8.25;;
60241;SDS011;46103;52.076;113.488;2023-03-01T14:51:27;26.88;;;9.40;;
60241;SDS011;46103;52.076;113.488;2023-03-01T14:57:49;17.13;;;7.15;;
60241;SDS011;46103;52.076;113.488;2023-03-01T15:01:00;23.08;;;8.32;;
60241;SDS011;46103;52.076;113.488;2023-03-01T15:04:05;22.92;;;8.15;;
60241;SDS011;46103;52.076;113.488;2023-03-01T15:07:09;19.88;;;7.07;;
60241;SDS011;46103;52.076;113.488;2023-03-01T15:10:27;22.17;;;7.70;;
60241;SDS011;46103;52.076;113.488;2023-03-01T15:13:32;10.98;;;5.93;;
60241;SDS011;46103;52.076;113.488;2023-03-01T15:16:38;19.77;;;6.90;;
60241;SDS011;46103;52.076;113.488;2023-03-01T15:19:45;17.50;;;7.07;;
60241;SDS011;46103;52.076;113.488;2023-03-01T15:22:50;13.93;;;6.60;;
60241;SDS011;46103;52.076;113.488;2023-03-01T15:25:54;17.63;;;6.00;;
60241;SDS011;46103;52.076;113.488;2023-03-01T15:28:59;27.42;;;8.23;;
60241;SDS011;46103;52.076;113.488;2023-03-01T15:32:20;20.45;;;9.05;;
60241;SDS011;46103;52.076;113.488;2023-03-01T15:35:44;14.00;;;6.38;;
60241;SDS011;46103;52.076;113.488;2023-03-01T15:38:55;11.88;;;5.28;;
60241;SDS011;46103;52.076;113.488;2023-03-01T15:42:01;14.32;;;5.38;;
60241;SDS011;46103;52.076;113.488;2023-03-01T15:45:21;7.88;;;3.15;;
60241;SDS011;46103;52.076;113.488;2023-03-01T15:48:26;14.57;;;3.97;;
60241;SDS011;46103;52.076;113.488;2023-03-01T15:51:34;13.23;;;4.10;;
60241;SDS011;46103;52.076;113.488;2023-03-01T15:54:40;9.63;;;4.07;;
60241;SDS011;46103;52.076;113.488;2023-03-01T15:57:43;11.13;;;4.07;;
60241;SDS011;46103;52.076;113.488;2023-03-01T16:00:47;11.88;;;5.05;;
60241;SDS011;46103;52.076;113.488;2023-03-01T16:04:03;21.15;;;2.85;;
60241;SDS011;46103;52.076;113.488;2023-03-01T16:07:08;7.97;;;3.50;;
60241;SDS011;46103;52.076;113.488;2023-03-01T16:10:12;13.27;;;4.43;;
60241;SDS011;46103;52.076;113.488;2023-03-01T16:13:16;6.32;;;2.72;;
60241;SDS011;46103;52.076;113.488;2023-03-01T16:16:20;11.63;;;3.50;;
60241;SDS011;46103;52.076;113.488;2023-03-01T16:19:25;12.93;;;3.05;;
60241;SDS011;46103;52.076;113.488;2023-03-01T16:22:28;9.48;;;3.42;;
60241;SDS011;46103;52.076;113.488;2023-03-01T16:25:33;5.47;;;2.50;;
60241;SDS011;46103;52.076;113.488;2023-03-01T16:28:39;9.15;;;3.30;;
60241;SDS011;46103;52.076;113.488;2023-03-01T16:31:43;7.55;;;3.30;;
60241;SDS011;46103;52.076;113.488;2023-03-01T16:34:47;3.50;;;1.85;;
60241;SDS011;46103;52.076;113.488;2023-03-01T16:37:51;5.85;;;2.65;;
60241;SDS011;46103;52.076;113.488;2023-03-01T16:40:55;7.55;;;2.30;;
60241;SDS011;46103;52.076;113.488;2023-03-01T16:43:59;8.90;;;2.97;;
60241;SDS011;46103;52.076;113.488;2023-03-01T16:47:04;4.68;;;2.40;;
60241;SDS011;46103;52.076;113.488;2023-03-01T16:50:09;6.18;;;2.08;;
60241;SDS011;46103;52.076;113.488;2023-03-01T16:53:14;5.03;;;2.05;;
60241;SDS011;46103;52.076;113.488;2023-03-01T16:56:18;8.38;;;3.20;;
60241;SDS011;46103;52.076;113.488;2023-03-01T16:59:22;10.07;;;3.83;;
60241;SDS011;46103;52.076;113.488;2023-03-01T17:02:26;5.40;;;2.13;;
60241;SDS011;46103;52.076;113.488;2023-03-01T17:05:30;5.57;;;2.20;;
60241;SDS011;46103;52.076;113.488;2023-03-01T17:08:35;6.75;;;2.35;;
60241;SDS011;46103;52.076;113.488;2023-03-01T17:11:39;3.15;;;1.95;;
60241;SDS011;46103;52.076;113.488;2023-03-01T17:14:43;10.52;;;2.70;;
60241;SDS011;46103;52.076;113.488;2023-03-01T17:17:47;6.47;;;1.90;;
60241;SDS011;46103;52.076;113.488;2023-03-01T17:20:54;5.38;;;2.70;;
60241;SDS011;46103;52.076;113.488;2023-03-01T17:23:58;11.07;;;2.75;;
60241;SDS011;46103;52.076;113.488;2023-03-01T17:27:04;6.00;;;2.80;;
60241;SDS011;46103;52.076;113.488;2023-03-01T17:30:10;5.65;;;2.97;;
60241;SDS011;46103;52.076;113.488;2023-03-01T17:33:15;7.20;;;2.33;;
60241;SDS011;46103;52.076;113.488;2023-03-01T17:36:19;7.85;;;2.25;;
60241;SDS011;46103;52.076;113.488;2023-03-01T17:39:23;4.32;;;1.45;;
60241;SDS011;46103;52.076;113.488;2023-03-01T17:42:32;6.00;;;2.70;;
60241;SDS011;46103;52.076;113.488;2023-03-01T17:45:36;3.20;;;1.83;;
60241;SDS011;46103;52.076;113.488;2023-03-01T17:48:41;7.38;;;3.05;;
60241;SDS011;46103;52.076;113.488;2023-03-01T17:51:45;4.47;;;2.08;;
60241;SDS011;46103;52.076;113.488;2023-03-01T17:54:49;5.50;;;2.20;;
60241;SDS011;46103;52.076;113.488;2023-03-01T17:57:54;3.42;;;1.75;;
60241;SDS011;46103;52.076;113.488;2023-03-01T18:01:11;4.90;;;1.67;;
60241;SDS011;46103;52.076;113.488;2023-03-01T18:04:21;4.38;;;1.95;;
60241;SDS011;46103;52.076;113.488;2023-03-01T18:07:26;8.95;;;2.80;;
60241;SDS011;46103;52.076;113.488;2023-03-01T18:10:31;7.57;;;2.05;;
60241;SDS011;46103;52.076;113.488;2023-03-01T18:13:38;11.07;;;3.25;;
60241;SDS011;46103;52.076;113.488;2023-03-01T18:16:43;10.70;;;4.50;;
60241;SDS011;46103;52.076;113.488;2023-03-01T18:19:47;12.05;;;4.22;;
60241;SDS011;46103;52.076;113.488;2023-03-01T18:22:51;6.80;;;3.03;;
60241;SDS011;46103;52.076;113.488;2023-03-01T18:25:57;8.13;;;3.75;;
60241;SDS011;46103;52.076;113.488;2023-03-01T18:29:08;5.22;;;2.10;;
60241;SDS011;46103;52.076;113.488;2023-03-01T18:32:13;4.10;;;2.55;;
60241;SDS011;46103;52.076;113.488;2023-03-01T18:35:16;8.32;;;3.30;;
60241;SDS011;46103;52.076;113.488;2023-03-01T18:38:20;6.63;;;2.63;;
60241;SDS011;46103;52.076;113.488;2023-03-01T18:41:25;11.82;;;2.90;;
60241;SDS011;46103;52.076;113.488;2023-03-01T18:44:32;9.75;;;3.47;;
60241;SDS011;46103;52.076;113.488;2023-03-01T18:47:37;12.13;;;3.80;;
60241;SDS011;46103;52.076;113.488;2023-03-01T18:50:41;14.45;;;5.43;;
60241;SDS011;46103;52.076;113.488;2023-03-01T18:53:45;6.38;;;3.28;;
60241;SDS011;46103;52.076;113.488;2023-03-01T18:56:50;9.05;;;3.13;;
60241;SDS011;46103;52.076;113.488;2023-03-01T18:59:54;13.43;;;4.18;;
60241;SDS011;46103;52.076;113.488;2023-03-01T19:02:59;4.38;;;2.33;;
60241;SDS011;46103;52.076;113.488;2023-03-01T19:06:05;8.20;;;3.15;;
60241;SDS011;46103;52.076;113.488;2023-03-01T19:09:10;12.40;;;3.60;;
60241;SDS011;46103;52.076;113.488;2023-03-01T19:12:16;8.73;;;3.10;;
60241;SDS011;46103;52.076;113.488;2023-03-01T19:15:20;4.78;;;2.55;;
60241;SDS011;46103;52.076;113.488;2023-03-01T19:18:25;4.78;;;2.55;;
60241;SDS011;46103;52.076;113.488;2023-03-01T19:21:30;8.02;;;2.95;;
60241;SDS011;46103;52.076;113.488;2023-03-01T19:24:37;7.78;;;3.50;;
60241;SDS011;46103;52.076;113.488;2023-03-01T19:27:44;9.70;;;3.78;;
60241;SDS011;46103;52.076;113.488;2023-03-01T19:30:56;9.38;;;4.55;;
60241;SDS011;46103;52.076;113.488;2023-03-01T19:34:05;7.90;;;3.40;;
60241;SDS011;46103;52.076;113.488;2023-03-01T19:37:13;5.30;;;2.42;;
60241;SDS011;46103;52.076;113.488;2023-03-01T19:40:19;4.70;;;2.17;;
60241;SDS011;46103;52.076;113.488;2023-03-01T19:43:26;8.10;;;2.80;;
60241;SDS011;46103;52.076;113.488;2023-03-01T19:46:33;3.92;;;1.85;;
60241;SDS011;46103;52.076;113.488;2023-03-01T19:49:37;6.75;;;2.60;;
60241;SDS011;46103;52.076;113.488;2023-03-01T19:52:43;4.65;;;1.77;;
60241;SDS011;46103;52.076;113.488;2023-03-01T19:55:48;3.67;;;1.85;;
60241;SDS011;46103;52.076;113.488;2023-03-01T20:02:04;5.50;;;1.65;;